createdAt,value
2022-11-13T00:01:15.172Z,30.67
2022-11-13T00:04:01.506Z,19.37
2022-11-13T00:06:48.055Z,21.80
2022-11-13T00:09:36.264Z,20.27
2022-11-13T00:12:22.625Z,27.83
2022-11-13T00:15:09.829Z,40.10
2022-11-13T00:17:56.267Z,26.83
2022-11-13T00:20:42.728Z,28.07
2022-11-13T00:23:29.141Z,25.30
2022-11-13T00:26:19.504Z,27.65
2022-11-13T00:29:06.248Z,22.70
2022-11-13T00:31:52.544Z,23.88
2022-11-13T00:34:47.560Z,22.45
2022-11-13T00:37:34.823Z,18.38
2022-11-13T00:40:21.147Z,23.38
2022-11-13T00:43:09.047Z,34.17
2022-11-13T00:45:55.407Z,43.37
2022-11-13T00:48:41.898Z,27.47
2022-11-13T00:51:28.347Z,34.97
2022-11-13T00:54:14.735Z,32.40
2022-11-13T00:57:01.059Z,21.20
2022-11-13T00:59:48.952Z,18.50
2022-11-13T01:02:35.442Z,17.30
2022-11-13T01:05:22.235Z,27.77
2022-11-13T01:08:10.380Z,19.07
2022-11-13T01:10:56.564Z,27.23
2022-11-13T01:13:45.193Z,19.55
2022-11-13T01:16:33.102Z,18.90
2022-11-13T01:19:19.549Z,24.67
2022-11-13T01:22:05.822Z,38.88
2022-11-13T01:24:52.455Z,23.80
2022-11-13T01:27:39.533Z,26.33
2022-11-13T01:30:25.794Z,52.63
2022-11-13T01:33:13.516Z,31.67
2022-11-13T01:36:04.446Z,21.13
2022-11-13T01:38:51.708Z,61.22
2022-11-13T01:41:38.198Z,17.77
2022-11-13T01:44:24.526Z,24.13
2022-11-13T01:47:11.011Z,26.52
2022-11-13T01:50:01.983Z,38.35
2022-11-13T01:52:48.589Z,30.23
2022-11-13T01:55:35.330Z,40.15
2022-11-13T01:58:22.007Z,24.15
2022-11-13T02:01:08.391Z,22.63
2022-11-13T02:03:54.952Z,20.45
2022-11-13T02:06:47.080Z,30.27
2022-11-13T02:09:37.308Z,29.90
2022-11-13T02:12:30.328Z,33.65
2022-11-13T02:15:17.896Z,28.15
2022-11-13T02:18:04.856Z,35.50
2022-11-13T02:21:01.880Z,21.20
2022-11-13T02:23:57.651Z,43.23
2022-11-13T02:26:46.209Z,61.20
2022-11-13T02:29:33.185Z,35.13
2022-11-13T02:32:20.266Z,53.40
2022-11-13T02:35:07.387Z,60.20
2022-11-13T02:37:53.845Z,39.30
2022-11-13T02:40:40.235Z,56.10
2022-11-13T02:43:28.065Z,24.38
2022-11-13T02:46:14.472Z,33.35
2022-11-13T02:49:01.320Z,27.90
2022-11-13T02:51:48.004Z,25.55
2022-11-13T02:54:34.398Z,23.45
2022-11-13T02:57:21.106Z,57.00
2022-11-13T03:00:13.821Z,70.75
2022-11-13T03:03:01.188Z,102.72
2022-11-13T03:05:50.047Z,84.95
2022-11-13T03:08:37.185Z,59.45
2022-11-13T03:11:23.959Z,28.90
2022-11-13T03:14:10.437Z,60.95
2022-11-13T03:16:58.451Z,90.32
2022-11-13T03:19:45.293Z,115.78
2022-11-13T03:22:31.645Z,55.30
2022-11-13T03:25:18.286Z,140.52
2022-11-13T03:28:05.143Z,127.07
2022-11-13T03:30:51.967Z,53.65
2022-11-13T03:33:39.849Z,39.72
2022-11-13T03:36:26.682Z,29.80
2022-11-13T03:39:13.055Z,42.00
2022-11-13T03:41:59.441Z,124.95
2022-11-13T03:44:45.858Z,53.60
2022-11-13T03:47:32.231Z,68.85
2022-11-13T03:50:20.032Z,99.40
2022-11-13T03:53:06.751Z,82.90
2022-11-13T03:55:53.307Z,81.28
2022-11-13T03:58:40.433Z,122.43
2022-11-13T04:01:27.248Z,79.97
2022-11-13T04:04:13.977Z,95.07
2022-11-13T04:07:01.676Z,28.67
2022-11-13T04:09:48.626Z,34.83
2022-11-13T04:12:35.613Z,18.30
2022-11-13T04:15:22.348Z,21.23
2022-11-13T04:18:09.017Z,31.50
2022-11-13T04:21:00.924Z,29.33
2022-11-13T04:23:48.684Z,81.32
2022-11-13T04:26:35.192Z,65.30
2022-11-13T04:29:21.528Z,108.75
2022-11-13T04:32:08.347Z,40.70
2022-11-13T04:34:55.213Z,69.35
2022-11-13T04:37:41.749Z,26.00
2022-11-13T04:40:29.665Z,26.52
2022-11-13T04:43:15.424Z,50.88
2022-11-13T04:46:01.733Z,47.33
2022-11-13T04:48:48.069Z,55.17
2022-11-13T04:51:34.653Z,45.65
2022-11-13T04:54:25.786Z,133.48
2022-11-13T04:57:16.253Z,68.53
2022-11-13T05:00:03.543Z,59.47
2022-11-13T05:02:50.202Z,48.38
2022-11-13T05:05:36.744Z,84.00
2022-11-13T05:08:22.961Z,84.60
2022-11-13T05:11:09.282Z,68.97
2022-11-13T05:14:02.110Z,48.30
2022-11-13T05:16:51.636Z,51.60
2022-11-13T05:19:38.172Z,39.97
2022-11-13T05:22:25.049Z,22.20
2022-11-13T05:25:12.001Z,40.13
2022-11-13T05:27:59.176Z,20.35
2022-11-13T05:30:47.256Z,24.05
2022-11-13T05:33:33.948Z,29.35
2022-11-13T05:36:22.074Z,44.05
2022-11-13T05:39:08.475Z,19.85
2022-11-13T05:41:55.021Z,36.03
2022-11-13T05:44:41.563Z,25.02
2022-11-13T05:47:29.225Z,19.92
2022-11-13T05:50:16.236Z,23.48
2022-11-13T05:53:02.871Z,19.92
2022-11-13T05:55:49.252Z,18.48
2022-11-13T05:58:36.033Z,67.00
2022-11-13T06:01:24.308Z,18.35
2022-11-13T06:04:12.159Z,22.63
2022-11-13T06:06:58.524Z,116.82
2022-11-13T06:09:44.911Z,17.88
2022-11-13T06:12:31.650Z,15.15
2022-11-13T06:15:18.315Z,25.50
2022-11-13T06:18:04.888Z,14.65
2022-11-13T06:20:53.011Z,22.90
2022-11-13T06:23:40.726Z,18.02
2022-11-13T06:26:29.016Z,11.95
2022-11-13T06:29:15.607Z,22.92
2022-11-13T06:32:01.890Z,13.20
2022-11-13T06:34:48.309Z,31.10
2022-11-13T06:37:36.031Z,22.08
2022-11-13T06:40:22.344Z,15.48
2022-11-13T06:43:08.749Z,21.60
2022-11-13T06:45:55.787Z,19.20
2022-11-13T06:48:42.280Z,20.58
2022-11-13T06:51:30.927Z,34.00
2022-11-13T06:54:19.047Z,25.27
2022-11-13T06:57:05.540Z,25.38
2022-11-13T06:59:51.792Z,61.28
2022-11-13T07:02:38.419Z,96.55
2022-11-13T07:05:24.977Z,50.00
2022-11-13T07:08:11.597Z,58.78
2022-11-13T07:11:00.299Z,112.53
2022-11-13T07:13:47.472Z,99.32
2022-11-13T07:16:56.183Z,14.30
2022-11-13T07:19:40.346Z,10.82
2022-11-13T07:22:26.729Z,122.90
2022-11-13T07:25:13.407Z,132.68
2022-11-13T07:28:01.121Z,24.42
2022-11-13T07:30:47.757Z,53.15
2022-11-13T07:33:34.670Z,51.03
2022-11-13T07:36:21.215Z,21.70
2022-11-13T07:39:07.539Z,41.28
2022-11-13T07:41:54.023Z,41.55
2022-11-13T07:44:54.159Z,15.98
2022-11-13T07:47:41.164Z,29.52
2022-11-13T07:50:29.004Z,25.23
2022-11-13T07:53:15.538Z,43.70
2022-11-13T07:56:03.017Z,40.63
2022-11-13T07:58:49.876Z,23.67
2022-11-13T08:01:38.429Z,35.38
2022-11-13T08:04:24.893Z,33.55
2022-11-13T08:07:13.009Z,25.40
2022-11-13T08:09:59.690Z,18.02
2022-11-13T08:12:46.468Z,17.73
2022-11-13T08:15:33.507Z,21.63
2022-11-13T08:18:22.268Z,24.65
2022-11-13T08:21:13.616Z,28.52
2022-11-13T08:24:01.578Z,24.75
2022-11-13T08:26:48.051Z,24.60
2022-11-13T08:29:37.213Z,27.48
2022-11-13T08:32:23.803Z,15.45
2022-11-13T08:35:17.389Z,29.45
2022-11-13T08:38:06.785Z,21.27
2022-11-13T08:40:53.738Z,17.10
2022-11-13T08:43:40.748Z,20.63
2022-11-13T08:46:27.443Z,18.50
2022-11-13T08:49:13.833Z,16.80
2022-11-13T08:52:01.672Z,17.05
2022-11-13T08:54:48.690Z,14.32
2022-11-13T08:57:35.140Z,24.70
2022-11-13T09:00:22.220Z,15.18
2022-11-13T09:03:11.972Z,17.05
2022-11-13T09:05:58.693Z,16.17
2022-11-13T09:08:46.315Z,15.23
2022-11-13T09:11:32.980Z,17.08
2022-11-13T09:14:19.548Z,14.23
2022-11-13T09:17:05.977Z,12.38
2022-11-13T09:19:52.410Z,12.18
2022-11-13T09:22:38.812Z,17.08
2022-11-13T09:25:27.968Z,13.18
2022-11-13T09:28:17.086Z,9.93
2022-11-13T09:31:05.654Z,11.90
2022-11-13T09:33:52.172Z,21.40
2022-11-13T09:36:38.603Z,13.40
2022-11-13T09:39:25.232Z,12.30
2022-11-13T09:42:18.133Z,11.33
2022-11-13T09:45:09.499Z,14.27
2022-11-13T09:47:58.721Z,12.65
2022-11-13T09:50:45.231Z,12.57
2022-11-13T09:53:35.735Z,11.93
2022-11-13T09:56:32.995Z,15.07
2022-11-13T09:59:29.894Z,12.32
2022-11-13T10:02:24.160Z,13.48
2022-11-13T10:05:22.528Z,14.93
2022-11-13T10:08:15.145Z,13.88
2022-11-13T10:11:08.738Z,16.80
2022-11-13T10:14:02.311Z,12.38
2022-11-13T10:16:55.640Z,16.70
2022-11-13T10:19:48.765Z,13.15
2022-11-13T10:22:40.351Z,12.70
2022-11-13T10:25:30.027Z,13.43
2022-11-13T10:28:50.184Z,13.60
2022-11-13T10:31:26.584Z,13.13
2022-11-13T10:34:15.620Z,12.15
2022-11-13T10:37:14.319Z,12.30
2022-11-13T10:40:00.845Z,11.82
2022-11-13T10:42:47.306Z,16.33
2022-11-13T10:45:33.963Z,15.07
2022-11-13T10:48:22.000Z,16.30
2022-11-13T10:51:27.119Z,15.73
2022-11-13T10:54:24.181Z,14.75
2022-11-13T10:57:30.075Z,15.52
2022-11-13T11:00:25.913Z,15.95
2022-11-13T11:03:17.673Z,14.32
2022-11-13T11:06:05.859Z,14.35
2022-11-13T11:08:53.660Z,13.48
2022-11-13T11:11:57.997Z,12.80
2022-11-13T11:15:07.910Z,12.73
2022-11-13T11:18:01.062Z,14.63
2022-11-13T11:20:52.499Z,12.98
2022-11-13T11:23:45.759Z,10.75
2022-11-13T11:26:39.418Z,11.73
2022-11-13T11:29:31.503Z,21.93
2022-11-13T11:32:24.146Z,9.60
2022-11-13T11:35:18.610Z,11.70
2022-11-13T11:38:12.650Z,11.57
2022-11-13T11:41:08.898Z,8.00
2022-11-13T11:44:05.268Z,8.87
2022-11-13T11:46:51.834Z,9.50
2022-11-13T11:49:38.919Z,8.93
2022-11-13T11:52:44.211Z,10.17
2022-11-13T11:55:44.799Z,8.50
2022-11-13T11:58:56.353Z,11.93
2022-11-13T12:02:14.280Z,10.03
2022-11-13T12:05:27.245Z,12.17
2022-11-13T12:08:27.231Z,8.67
2022-11-13T12:11:21.788Z,12.87
2022-11-13T12:14:21.142Z,7.33
2022-11-13T12:17:28.400Z,11.00
2022-11-13T12:20:27.013Z,19.97
2022-11-13T12:23:27.747Z,16.83
2022-11-13T12:26:20.904Z,23.70
2022-11-13T12:29:17.324Z,8.20
2022-11-13T12:32:16.281Z,6.20
2022-11-13T12:35:09.696Z,6.27
2022-11-13T12:38:01.503Z,8.37
2022-11-13T12:40:52.053Z,6.47
2022-11-13T12:43:54.384Z,7.17
2022-11-13T12:46:42.530Z,8.87
2022-11-13T12:49:35.583Z,8.20
2022-11-13T12:52:24.410Z,6.53
2022-11-13T12:55:26.710Z,7.07
2022-11-13T12:58:21.243Z,7.63
2022-11-13T13:01:17.526Z,7.50
2022-11-13T13:04:40.410Z,7.33
2022-11-13T13:07:43.314Z,8.87
2022-11-13T13:10:37.439Z,7.33
2022-11-13T13:13:32.150Z,10.03
2022-11-13T13:16:25.830Z,8.67
2022-11-13T13:19:26.346Z,6.80
2022-11-13T13:22:27.035Z,8.70
2022-11-13T13:25:27.067Z,7.90
2022-11-13T13:28:21.386Z,7.80
2022-11-13T13:31:20.743Z,8.10
2022-11-13T13:34:23.427Z,7.57
2022-11-13T13:37:22.115Z,9.90
2022-11-13T13:40:21.660Z,13.73
2022-11-13T13:43:24.378Z,22.47
2022-11-13T13:46:16.144Z,21.97
2022-11-13T13:49:06.728Z,14.10
2022-11-13T13:51:55.632Z,11.70
2022-11-13T13:54:45.587Z,14.47
2022-11-13T13:57:32.122Z,11.03
2022-11-13T14:00:21.346Z,8.83
2022-11-13T14:03:19.311Z,9.80
2022-11-13T14:06:27.399Z,10.27
2022-11-13T14:09:19.523Z,12.87
2022-11-13T14:12:18.681Z,8.57
2022-11-13T14:15:06.833Z,13.90
2022-11-13T14:17:53.337Z,9.20
2022-11-13T14:20:44.121Z,8.00
2022-11-13T14:23:33.138Z,10.03
2022-11-13T14:26:20.674Z,13.13
2022-11-13T14:29:23.954Z,12.67
2022-11-13T14:32:22.271Z,9.60
2022-11-13T14:35:19.017Z,16.83
2022-11-13T14:38:05.386Z,13.73
2022-11-13T14:40:52.303Z,9.10
2022-11-13T14:43:39.073Z,8.37
2022-11-13T14:46:32.027Z,8.73
2022-11-13T14:49:29.023Z,11.10
2022-11-13T14:52:22.831Z,14.60
2022-11-13T14:55:21.463Z,13.63
2022-11-13T14:58:12.286Z,11.03
2022-11-13T15:01:15.978Z,11.70
2022-11-13T15:04:04.412Z,10.00
2022-11-13T15:06:55.413Z,11.07
2022-11-13T15:09:42.120Z,8.87
2022-11-13T15:12:28.496Z,9.67
2022-11-13T15:15:15.996Z,10.20
2022-11-13T15:18:03.272Z,7.53
2022-11-13T15:20:51.065Z,10.57
2022-11-13T15:23:37.437Z,11.00
2022-11-13T15:26:24.232Z,15.83
2022-11-13T15:29:10.665Z,10.97
2022-11-13T15:31:58.050Z,11.70
2022-11-13T15:34:44.538Z,11.23
2022-11-13T15:37:33.139Z,13.80
2022-11-13T15:40:19.587Z,18.30
2022-11-13T15:43:06.752Z,27.80
2022-11-13T15:45:53.104Z,60.80
2022-11-13T15:48:39.484Z,47.57
2022-11-13T15:51:29.136Z,44.80
2022-11-13T15:54:23.716Z,37.63
2022-11-13T15:57:19.169Z,27.20
2022-11-13T16:00:13.595Z,27.20
2022-11-13T16:02:59.959Z,20.70
2022-11-13T16:05:46.573Z,21.60
2022-11-13T16:08:32.785Z,18.20
2022-11-13T16:11:21.705Z,17.50
2022-11-13T16:14:08.461Z,18.37
2022-11-13T16:16:55.192Z,18.03
2022-11-13T16:19:42.871Z,21.70
2022-11-13T16:22:29.525Z,22.97
2022-11-13T16:25:18.532Z,18.20
2022-11-13T16:28:09.520Z,14.03
2022-11-13T16:30:56.136Z,19.27
2022-11-13T16:33:44.409Z,14.50
2022-11-13T16:36:31.434Z,19.90
2022-11-13T16:39:18.279Z,17.93
2022-11-13T16:42:05.062Z,22.80
2022-11-13T16:44:53.167Z,31.53
2022-11-13T16:47:39.675Z,36.03
2022-11-13T16:50:30.422Z,37.70
2022-11-13T16:53:16.803Z,41.67
2022-11-13T16:56:03.661Z,45.03
2022-11-13T16:58:50.172Z,48.93
2022-11-13T17:01:38.076Z,66.13
2022-11-13T17:04:24.971Z,89.10
2022-11-13T17:07:13.850Z,71.20
2022-11-13T17:10:29.049Z,46.70
2022-11-13T17:13:07.252Z,44.70
2022-11-13T17:15:53.619Z,37.03
2022-11-13T17:18:41.422Z,22.57
2022-11-13T17:21:30.888Z,25.80
2022-11-13T17:24:17.411Z,25.40
2022-11-13T17:27:04.006Z,24.87
2022-11-13T17:29:50.366Z,31.40
2022-11-13T17:32:36.660Z,35.57
2022-11-13T17:35:24.394Z,42.87
2022-11-13T17:38:14.596Z,18.37
2022-11-13T17:41:05.745Z,24.37
2022-11-13T17:43:54.607Z,32.05
2022-11-13T17:46:44.891Z,38.10
2022-11-13T17:49:31.160Z,33.87
2022-11-13T17:52:19.163Z,40.37
2022-11-13T17:55:10.624Z,81.43
2022-11-13T17:58:00.231Z,67.37
2022-11-13T18:00:46.947Z,75.28
2022-11-13T18:03:33.516Z,61.83
2022-11-13T18:06:21.256Z,51.17
2022-11-13T18:09:09.143Z,68.20
2022-11-13T18:11:55.709Z,99.40
2022-11-13T18:14:42.133Z,68.83
2022-11-13T18:17:28.567Z,111.50
2022-11-13T18:20:15.021Z,124.30
2022-11-13T18:23:01.544Z,120.30
2022-11-13T18:25:49.241Z,74.10
2022-11-13T18:28:35.995Z,48.47
2022-11-13T18:31:23.290Z,56.22
2022-11-13T18:34:12.655Z,42.42
2022-11-13T18:36:59.570Z,42.80
2022-11-13T18:39:46.255Z,45.60
2022-11-13T18:42:34.135Z,53.28
2022-11-13T18:45:20.652Z,46.20
2022-11-13T18:48:07.001Z,53.00
2022-11-13T18:50:57.139Z,51.83
2022-11-13T18:53:45.655Z,38.08
2022-11-13T18:56:33.468Z,41.80
2022-11-13T18:59:21.416Z,38.20
2022-11-13T19:02:07.947Z,37.75
2022-11-13T19:04:54.593Z,39.88
2022-11-13T19:07:40.829Z,53.83
2022-11-13T19:10:27.433Z,35.45
2022-11-13T19:13:13.999Z,32.97
2022-11-13T19:16:06.488Z,36.20
2022-11-13T19:18:54.350Z,67.38
2022-11-13T19:21:41.357Z,39.35
2022-11-13T19:24:28.136Z,37.97
2022-11-13T19:27:14.481Z,37.63
2022-11-13T19:30:00.758Z,37.88
2022-11-13T19:32:48.677Z,35.03
2022-11-13T19:35:34.989Z,38.67
2022-11-13T19:38:21.684Z,23.63
2022-11-13T19:41:09.131Z,29.92
2022-11-13T19:43:56.065Z,51.83
2022-11-13T19:46:44.889Z,33.47
2022-11-13T19:49:34.440Z,23.05
2022-11-13T19:52:20.944Z,27.00
2022-11-13T19:55:07.787Z,28.80
2022-11-13T19:57:54.376Z,28.37
2022-11-13T20:00:41.619Z,26.55
2022-11-13T20:03:28.269Z,25.85
2022-11-13T20:06:17.879Z,25.20
2022-11-13T20:09:04.679Z,29.63
2022-11-13T20:11:51.405Z,28.15
2022-11-13T20:14:38.638Z,23.98
2022-11-13T20:17:25.412Z,20.40
2022-11-13T20:20:12.681Z,16.95
2022-11-13T20:23:00.676Z,25.60
2022-11-13T20:25:53.138Z,17.47
2022-11-13T20:28:39.432Z,21.85
2022-11-13T20:31:27.661Z,31.52
2022-11-13T20:34:14.563Z,36.88
2022-11-13T20:37:01.354Z,18.50
2022-11-13T20:39:49.382Z,19.67
2022-11-13T20:42:35.768Z,15.87
2022-11-13T20:45:22.247Z,17.80
2022-11-13T20:48:08.781Z,19.13
2022-11-13T20:50:55.133Z,20.30
2022-11-13T20:53:42.098Z,19.23
2022-11-13T20:56:29.848Z,17.85
2022-11-13T20:59:16.726Z,18.53
2022-11-13T21:02:03.267Z,18.00
2022-11-13T21:04:50.069Z,21.45
2022-11-13T21:07:36.882Z,24.40
2022-11-13T21:10:23.668Z,24.23
2022-11-13T21:13:11.395Z,21.67
2022-11-13T21:15:57.762Z,25.50
2022-11-13T21:18:44.373Z,31.50
2022-11-13T21:21:31.756Z,21.53
2022-11-13T21:24:18.657Z,17.57
2022-11-13T21:27:05.445Z,23.20
2022-11-13T21:29:54.619Z,43.08
2022-11-13T21:32:41.331Z,61.93
2022-11-13T21:35:28.811Z,44.88
2022-11-13T21:38:15.495Z,51.45
2022-11-13T21:41:20.289Z,63.63
2022-11-13T21:44:08.711Z,40.22
2022-11-13T21:46:56.715Z,41.78
2022-11-13T21:49:43.761Z,38.50
2022-11-13T21:52:30.553Z,27.35
2022-11-13T21:55:17.445Z,27.07
2022-11-13T21:58:03.952Z,21.17
2022-11-13T22:00:50.265Z,22.73
2022-11-13T22:03:38.735Z,22.08
2022-11-13T22:06:27.500Z,20.85
2022-11-13T22:09:15.835Z,21.67
2022-11-13T22:12:02.309Z,19.40
2022-11-13T22:14:48.827Z,22.92
2022-11-13T22:17:35.364Z,24.08
2022-11-13T22:20:23.167Z,21.55
2022-11-13T22:23:09.645Z,29.73
2022-11-13T22:26:01.449Z,27.33
2022-11-13T22:28:49.248Z,23.58
2022-11-13T22:31:37.197Z,27.23
2022-11-13T22:34:23.748Z,25.05
2022-11-13T22:37:11.605Z,25.63
2022-11-13T22:39:58.143Z,37.83
2022-11-13T22:42:44.584Z,28.48
2022-11-13T22:45:31.201Z,28.38
2022-11-13T22:48:17.666Z,28.80
2022-11-13T22:51:06.095Z,35.40
2022-11-13T22:53:56.314Z,30.08
2022-11-13T22:56:43.351Z,24.40
2022-11-13T22:59:30.099Z,24.92
2022-11-13T23:02:17.642Z,27.73
2022-11-13T23:05:05.204Z,25.52
2022-11-13T23:07:51.759Z,23.38
2022-11-13T23:10:40.403Z,25.40
2022-11-13T23:13:27.033Z,25.00
2022-11-13T23:16:14.782Z,26.65
2022-11-13T23:19:02.429Z,19.77
2022-11-13T23:21:49.320Z,21.73
2022-11-13T23:24:36.067Z,21.85
2022-11-13T23:27:23.810Z,24.10
2022-11-13T23:30:11.751Z,21.20
2022-11-13T23:32:58.157Z,21.25
2022-11-13T23:35:44.963Z,21.88
2022-11-13T23:38:31.985Z,23.55
2022-11-13T23:41:18.503Z,20.02
2022-11-13T23:44:09.496Z,23.85
2022-11-13T23:46:57.404Z,22.73
2022-11-13T23:49:43.778Z,22.42
2022-11-13T23:52:30.178Z,24.63
2022-11-13T23:55:17.370Z,23.35
2022-11-13T23:58:06.171Z,29.83
